Teachey, North Carolina
Current Conditions -  °F | °C
As of 5:35 PM on Sunday 23 Nov 2014 (Local Time) from KDPL Reporting Station
Light Rain Light Rain  
Wind Chill: 60°   Ceiling: 1200
Heat Index: 60°   Visibility: 7mi
Dew Point: 58°   Wind: 3mph
Humidity: 95%   Direction: 100°E
Pressure: 29.98"   Gusts: NA
Location:  34.77°N, 78.01°W
Report Text: KDPL 232235Z AUTO 10003KT 7SM -RA OVC012 16/15 A2998 RMK AO2 P0001 T01550147
Loading
Personal Weather Stations






























Interactive Weather Map New forecast layout! Learn more

10-Day Weather Forecast

Advertisements
Track Severe Weather on mobile